CYRA

Details ICAO CYRA (YRA)
Name Rae Lakes
Region Canada
Timezone America/Yellowknife (UTC-6.0)
Plans Departing 2
Arriving 3
Stats Elevation 757 ft / 231 m (AMSL)
Location 64.116013° -117.309831°
Runways 1
Magnetic Variation 18.153° E
Sunrise 2018-05-25 10:04:40 UTC / 2018-05-25 04:04:40 Local
Sunset 2018-05-26 05:30:37 UTC / 2018-05-25 23:30:37 Local
Advertisement - Login to hide

Runways

ID Width Length Bearing (true) Bearing (mag) Surface Threshold Offset Overrun Length
14 98 ft / 30 m 3,226 ft / 983 m 136.53° 118.38° Dirt 0 ft / 0 m 0 ft / 0 m
32 98 ft / 30 m 3,226 ft / 983 m 316.54° 298.39° Dirt 0 ft / 0 m 0 ft / 0 m

Map

Weather


0- 5 10 15 20 25 30 35+ Temperature / ° C

Clouds and Precipitation
Forecast for 2018-05-26 00:00 UTC. Updated 2 hours ago

Ground ~20,000 ft ~40,000 ft Winds

METAR

CYRA 260000Z 12003KT 15SM BKN020 BKN025 12/07 A2964 RMK SC5SC1 12.0/ 4.2/ 0.0/ LAST STFD OBS/ NXT 261500Z SLP048 DENSITY ALT 900FT

TAF

TAF CYRA 251838Z 2519/2524 VRB03KT P6SM FEW009 BKN012 TEMPO 2519/2521 SCT015 BKN040 RMK NXT FCST WILL BE ISSUED AT 261645Z
Warning: Do not use this data for real-world aviation or navigation. No guarantee of current accuracy is given.